aviador You're here:

LDDU Decoded Metar

DUBROVNIK in CROATIA
Report Time2018-01-18 09:30:00
UTC Time2018-01-18 09:57:56
Flight Rules vfr VFR
Wind320° at 08 kt
W.Decomp.*RWY 30: 7.7 kt HW 2.3 kt RCW
W.Rank320° ranks 32
Current wind is above 320° avg. (6.4)
Visibility9999 m
Phenomena:N/A
Clouds:N/A
Expected CloudBase > 6,000 ft AGL from Temp-Dew spread
CeilingNone
Temp09°C (ISA -5)
Dew Point-6°C (34% RH)
AAT3.4°C
QNH1018 hPa
Density Alt-161 ft
Elevation541 ft
Report Wrong Elevation
Raw Report
LDDU 180930Z 32008KT 280V020 CAVOK 09/M06 Q1018 NOSIG=

Extra information for LDDU:More info

Metar Taf Metar & Taf Last 4 Metars F.Rules Stats Wind Profile Meteogram Temp Stats Airport Information Weather charts Add Link Nearby VenuesMetar ALERT Operation Metar Decoded Social comments